Time;durP1;ratioP1;P1;durP2;ratioP2;P2;SDS_P1;SDS_P2;PMS_P1;PMS_P2;Temp;Humidity;BMP_temperature;BMP_pressure;BME280_temperature;BME280_humidity;BME280_pressure;Samples;Min_cycle;Max_cycle;Signal;HPM_P1;HPM_P2
2021/05/11 00:00:57;;;;;;;0.10;0.10;;;13.00;85.60;;;;;;6213443;23;19997;-78
2021/05/11 00:03:23;;;;;;;0.10;0.10;;;12.90;86.00;;;;;;6186026;23;20012;-78
2021/05/11 00:05:49;;;;;;;0.10;0.10;;;12.90;85.90;;;;;;6215551;23;20052;-78
2021/05/11 00:08:14;;;;;;;0.10;0.10;;;12.90;86.20;;;;;;6215403;23;20424;-78
2021/05/11 00:10:40;;;;;;;0.13;0.13;;;12.90;86.60;;;;;;6216294;23;20009;-79
2021/05/11 00:13:06;;;;;;;0.20;0.20;;;12.80;86.90;;;;;;6216484;23;19996;-77
2021/05/11 00:15:31;;;;;;;0.10;0.10;;;12.80;85.70;;;;;;6215969;23;20029;-76
2021/05/11 00:17:57;;;;;;;0.10;0.10;;;12.80;85.20;;;;;;6190059;23;20032;-75
2021/05/11 00:20:23;;;;;;;0.10;0.10;;;12.80;84.90;;;;;;6216510;23;20027;-75
2021/05/11 00:22:49;;;;;;;0.10;0.10;;;12.80;84.60;;;;;;6216441;23;19997;-75
2021/05/11 00:25:16;;;;;;;0.10;0.10;;;12.80;84.60;;;;;;6189717;23;20011;-77
2021/05/11 00:27:42;;;;;;;0.10;0.10;;;12.70;84.50;;;;;;6216430;23;20005;-76
2021/05/11 00:30:09;;;;;;;0.10;0.10;;;12.80;83.70;;;;;;6216256;23;20331;-74
2021/05/11 00:32:35;;;;;;;0.10;0.10;;;12.80;83.70;;;;;;6216269;23;20036;-75
2021/05/11 00:35:01;;;;;;;0.10;0.10;;;12.80;83.30;;;;;;6216102;23;20011;-74
2021/05/11 00:37:26;;;;;;;0.20;0.20;;;12.90;82.30;;;;;;6216551;23;20004;-75
2021/05/11 00:39:52;;;;;;;0.10;0.10;;;13.00;81.80;;;;;;6214659;23;20445;-76
2021/05/11 00:42:18;;;;;;;0.10;0.10;;;13.10;83.10;;;;;;6216538;23;20439;-76
2021/05/11 00:44:44;;;;;;;0.10;0.10;;;13.20;82.10;;;;;;6215804;23;20004;-76
2021/05/11 00:47:09;;;;;;;0.10;0.10;;;13.20;80.90;;;;;;6216373;23;20000;-76
2021/05/11 00:49:36;;;;;;;0.10;0.10;;;13.30;79.60;;;;;;6189511;23;20377;-76
2021/05/11 00:52:04;;;;;;;0.10;0.10;;;13.30;80.10;;;;;;6216037;23;20403;-76
2021/05/11 00:54:30;;;;;;;0.10;0.10;;;13.50;78.30;;;;;;6216128;23;19996;-76
2021/05/11 00:56:56;;;;;;;0.10;0.10;;;13.60;77.30;;;;;;6216356;23;20001;-76
2021/05/11 00:59:27;;;;;;;0.10;0.10;;;13.60;77.40;;;;;;6216139;23;20021;-76
2021/05/11 01:01:54;;;;;;;0.10;0.10;;;13.60;77.50;;;;;;6216336;23;20000;-76
2021/05/11 01:04:21;;;;;;;0.10;0.10;;;13.70;76.30;;;;;;6216032;23;20072;-76
2021/05/11 01:06:46;;;;;;;0.10;0.10;;;13.80;75.10;;;;;;6214385;23;20428;-76
2021/05/11 01:09:12;;;;;;;0.10;0.10;;;13.80;74.90;;;;;;6214669;23;20137;-76
2021/05/11 01:11:38;;;;;;;0.10;0.10;;;13.90;74.00;;;;;;6212998;23;20040;-77
2021/05/11 01:14:05;;;;;;;0.10;0.10;;;14.00;73.50;;;;;;6214467;23;19997;-76
2021/05/11 01:16:32;;;;;;;0.10;0.10;;;14.10;72.40;;;;;;6214477;23;20032;-76
2021/05/11 01:19:07;;;;;;;0.10;0.10;;;14.10;72.60;;;;;;6214511;23;19996;-76
2021/05/11 01:24:08;;;;;;;0.10;0.10;;;14.20;72.70;;;;;;6216826;23;20083;-76
2021/05/11 01:29:15;;;;;;;0.10;0.10;;;14.20;72.30;;;;;;6214751;23;20004;-76
2021/05/11 01:50:28;;;;;;;0.10;0.10;;;13.60;73.00;;;;;;6216537;23;20001;-76
2021/05/11 01:53:05;;;;;;;0.10;0.10;;;13.60;73.40;;;;;;6187751;23;20060;-76
2021/05/11 02:23:04;;;;;;;0.10;0.10;;;13.70;70.80;;;;;;6214060;23;20047;-75
2021/05/11 02:25:29;;;;;;;0.10;0.10;;;13.80;70.30;;;;;;6213560;23;20080;-75
2021/05/11 02:27:55;;;;;;;0.10;0.10;;;13.80;70.90;;;;;;6214172;23;20396;-75
2021/05/11 02:30:21;;;;;;;0.10;0.10;;;13.80;70.40;;;;;;6213406;23;20075;-76
2021/05/11 02:32:47;;;;;;;0.10;0.10;;;13.80;71.10;;;;;;6213828;23;20082;-76
2021/05/11 02:35:16;;;;;;;0.10;0.10;;;13.80;70.70;;;;;;6213687;23;20009;-76
2021/05/11 02:37:42;;;;;;;0.10;0.10;;;13.70;71.30;;;;;;6213878;23;20283;-76
2021/05/11 02:40:11;;;;;;;0.10;0.10;;;13.60;71.70;;;;;;6212104;23;19993;-75
2021/05/11 02:42:38;;;;;;;0.10;0.10;;;13.60;72.20;;;;;;6213987;23;20243;-76
2021/05/11 02:45:12;;;;;;;0.10;0.10;;;13.60;71.50;;;;;;6213379;23;20036;-76
2021/05/11 02:47:48;;;;;;;0.10;0.10;;;13.60;72.50;;;;;;6212193;23;20004;-76
2021/05/11 02:50:29;;;;;;;0.10;0.10;;;13.60;71.90;;;;;;6213490;23;20001;-76
2021/05/11 02:52:55;;;;;;;0.10;0.10;;;13.50;71.70;;;;;;6213506;23;20012;-76
2021/05/11 02:55:22;;;;;;;0.10;0.10;;;13.50;71.60;;;;;;6213515;23;20000;-76
2021/05/11 02:57:49;;;;;;;0.10;0.10;;;13.50;71.30;;;;;;6213595;23;20127;-76
2021/05/11 03:00:17;;;;;;;0.10;0.10;;;13.50;72.10;;;;;;6213404;23;20012;-76
2021/05/11 03:02:43;;;;;;;0.10;0.10;;;13.40;71.00;;;;;;6211883;23;20001;-76
2021/05/11 03:05:10;;;;;;;0.10;0.10;;;13.40;71.00;;;;;;6213378;23;20005;-75
2021/05/11 03:07:36;;;;;;;0.10;0.10;;;13.40;70.60;;;;;;6213455;23;20510;-75
2021/05/11 03:10:07;;;;;;;0.10;0.10;;;13.40;73.10;;;;;;6213414;23;20039;-76
2021/05/11 03:12:32;;;;;;;0.10;0.10;;;13.60;70.30;;;;;;6213431;23;20019;-75
2021/05/11 03:14:58;;;;;;;0.10;0.10;;;13.60;70.60;;;;;;6213276;23;20413;-76
2021/05/11 03:17:25;;;;;;;0.10;0.10;;;13.60;69.20;;;;;;6213351;23;20328;-75
2021/05/11 03:19:50;;;;;;;0.10;0.10;;;13.60;70.10;;;;;;6213201;23;19997;-76
2021/05/11 03:22:16;;;;;;;0.10;0.10;;;13.70;68.60;;;;;;6213542;23;20008;-75
2021/05/11 03:24:45;;;;;;;0.10;0.10;;;13.90;68.60;;;;;;6212876;23;20011;-75
2021/05/11 03:27:12;;;;;;;0.10;0.10;;;14.10;68.20;;;;;;6213549;23;19996;-75
2021/05/11 03:29:39;;;;;;;0.10;0.10;;;14.10;67.80;;;;;;6211308;23;20004;-75
2021/05/11 03:32:05;;;;;;;0.10;0.10;;;14.10;69.50;;;;;;6213317;23;20118;-75
2021/05/11 03:34:30;;;;;;;0.10;0.10;;;14.10;69.60;;;;;;6213049;23;20235;-76
2021/05/11 03:36:57;;;;;;;0.10;0.10;;;14.00;70.70;;;;;;6213321;23;20035;-75
2021/05/11 03:39:23;;;;;;;0.10;0.10;;;14.00;71.30;;;;;;6211472;23;20447;-76
2021/05/11 03:41:53;;;;;;;0.10;0.10;;;14.00;71.90;;;;;;6213550;23;20467;-76
2021/05/11 03:44:22;;;;;;;0.10;0.10;;;14.20;70.70;;;;;;6212870;23;20001;-76
2021/05/11 03:46:48;;;;;;;0.10;0.10;;;14.20;71.70;;;;;;6213320;23;20446;-76
2021/05/11 03:49:14;;;;;;;0.10;0.10;;;14.20;70.90;;;;;;6213032;23;20005;-76
2021/05/11 03:51:40;;;;;;;0.03;0.03;;;14.30;72.00;;;;;;6213412;23;20008;-73
2021/05/11 03:54:06;;;;;;;0.10;0.10;;;14.30;70.30;;;;;;6186227;23;20078;-73
2021/05/11 03:56:32;;;;;;;0.10;0.10;;;14.30;71.80;;;;;;6213345;23;20011;-73
2021/05/11 03:58:58;;;;;;;0.10;0.10;;;14.40;73.20;;;;;;6213039;23;20001;-73
2021/05/11 04:01:25;;;;;;;0.10;0.10;;;14.30;71.60;;;;;;6186522;23;20436;-73
2021/05/11 04:03:50;;;;;;;0.10;0.10;;;14.40;71.70;;;;;;6211446;23;20004;-73
2021/05/11 04:06:16;;;;;;;0.10;0.10;;;14.50;71.70;;;;;;6213175;23;20055;-73
2021/05/11 04:16:26;;;;;;;0.10;0.10;;;15.00;70.80;;;;;;6214107;23;20004;-73
2021/05/11 04:18:53;;;;;;;0.10;0.10;;;15.00;71.50;;;;;;6213136;23;20725;-76
2021/05/11 04:21:19;;;;;;;0.10;0.10;;;15.00;70.60;;;;;;6213150;23;20005;-73
2021/05/11 04:23:46;;;;;;;0.10;0.10;;;15.00;70.70;;;;;;6213064;23;20440;-74
2021/05/11 04:26:12;;;;;;;0.10;0.10;;;15.00;70.60;;;;;;6213123;23;20282;-74
2021/05/11 04:28:39;;;;;;;0.10;0.10;;;15.00;70.20;;;;;;6212897;23;20027;-75
2021/05/11 04:31:06;;;;;;;0.10;0.10;;;15.20;69.70;;;;;;6212848;23;20015;-75
2021/05/11 04:33:32;;;;;;;0.10;0.10;;;15.20;70.80;;;;;;6213038;23;20035;-75
2021/05/11 04:35:58;;;;;;;0.10;0.10;;;15.30;70.30;;;;;;6212945;23;20012;-74
2021/05/11 04:38:24;;;;;;;0.10;0.10;;;15.30;70.70;;;;;;6213103;23;20001;-73
2021/05/11 04:40:51;;;;;;;0.10;0.10;;;15.30;71.60;;;;;;6213802;23;20132;-73
2021/05/11 04:43:17;;;;;;;0.10;0.10;;;15.40;72.10;;;;;;6214989;23;19996;-73
2021/05/11 04:45:43;;;;;;;0.10;0.10;;;15.40;72.10;;;;;;6214646;23;20005;-73
2021/05/11 04:48:09;;;;;;;0.10;0.10;;;15.60;71.20;;;;;;6215055;23;20537;-73
2021/05/11 04:50:35;;;;;;;0.10;0.10;;;15.80;72.40;;;;;;6214724;23;20031;-73
2021/05/11 04:53:01;;;;;;;0.10;0.10;;;15.80;71.90;;;;;;6213266;23;20019;-74
2021/05/11 04:55:27;;;;;;;0.10;0.10;;;16.00;71.90;;;;;;6214914;23;20000;-74
2021/05/11 04:57:53;;;;;;;0.10;0.10;;;16.10;71.90;;;;;;6188224;23;20009;-73
2021/05/11 05:00:19;;;;;;;0.10;0.10;;;16.20;70.40;;;;;;6214467;23;20115;-74
2021/05/11 05:02:46;;;;;;;0.10;0.10;;;16.30;68.00;;;;;;6214701;23;20001;-75
2021/05/11 05:05:14;;;;;;;0.00;0.00;;;16.50;68.70;;;;;;6214531;23;20027;-74
2021/05/11 05:07:40;;;;;;;0.10;0.10;;;16.70;68.60;;;;;;6214851;23;20008;-75
2021/05/11 05:10:07;;;;;;;0.00;0.00;;;16.60;69.40;;;;;;6214266;23;20088;-74
2021/05/11 05:12:34;;;;;;;0.10;0.10;;;16.60;68.90;;;;;;6214712;23;20047;-74
2021/05/11 05:15:04;;;;;;;0.10;0.10;;;16.60;68.60;;;;;;6199591;23;19997;-74
2021/05/11 05:17:30;;;;;;;0.10;0.10;;;16.60;73.40;;;;;;6197074;23;19996;-74
2021/05/11 05:19:56;;;;;;;0.10;0.10;;;16.60;73.30;;;;;;6211756;23;20001;-73
2021/05/11 05:22:21;;;;;;;0.10;0.10;;;16.70;74.00;;;;;;6205757;23;20343;-74
2021/05/11 05:24:51;;;;;;;0.10;0.10;;;16.80;72.20;;;;;;6211578;23;20043;-74
2021/05/11 05:27:25;;;;;;;0.00;0.00;;;16.90;73.10;;;;;;6196794;23;20000;-74
2021/05/11 05:29:51;;;;;;;0.10;0.10;;;17.00;73.80;;;;;;6173371;23;20546;-73
2021/05/11 05:32:17;;;;;;;0.10;0.10;;;17.10;74.50;;;;;;6211463;23;20047;-73
2021/05/11 05:34:43;;;;;;;0.10;0.10;;;17.20;73.60;;;;;;6210957;23;20027;-74
2021/05/11 05:37:10;;;;;;;0.10;0.10;;;17.10;74.00;;;;;;6212437;23;20013;-74
2021/05/11 05:42:01;;;;;;;0.10;0.10;;;17.40;75.40;;;;;;6213451;23;20012;-75
2021/05/11 05:44:27;;;;;;;0.00;0.00;;;17.40;74.40;;;;;;6213111;23;19997;-75
2021/05/11 05:46:53;;;;;;;0.00;0.00;;;17.60;73.10;;;;;;6213173;23;20360;-75
2021/05/11 05:49:20;;;;;;;0.10;0.10;;;17.70;73.50;;;;;;6213895;23;20005;-74
2021/05/11 05:51:49;;;;;;;0.10;0.10;;;17.70;73.20;;;;;;6213387;23;20091;-74
2021/05/11 05:54:14;;;;;;;0.00;0.00;;;17.80;74.60;;;;;;6210777;23;20057;-75
2021/05/11 05:56:40;;;;;;;0.10;0.10;;;17.90;73.90;;;;;;6211453;23;20009;-74
2021/05/11 05:59:06;;;;;;;0.10;0.10;;;17.90;73.40;;;;;;6210913;23;20000;-75
2021/05/11 06:01:31;;;;;;;0.10;0.10;;;18.00;75.60;;;;;;6209456;23;20476;-75
2021/05/11 06:04:10;;;;;;;0.10;0.10;;;18.20;74.70;;;;;;6210965;23;20084;-76
2021/05/11 06:06:36;;;;;;;0.10;0.10;;;18.20;73.20;;;;;;6211256;23;20013;-74
2021/05/11 06:09:05;;;;;;;0.10;0.10;;;18.30;71.30;;;;;;6212652;23;20328;-75
2021/05/11 06:19:14;;;;;;;0.10;0.10;;;18.70;74.30;;;;;;6213737;23;20012;-74
2021/05/11 06:21:40;;;;;;;0.10;0.10;;;18.80;72.30;;;;;;6213649;23;20004;-78
2021/05/11 06:24:06;;;;;;;0.10;0.10;;;19.00;71.30;;;;;;6213598;23;20436;-76
2021/05/11 06:26:32;;;;;;;0.10;0.10;;;19.00;70.90;;;;;;6213719;23;20008;-74
2021/05/11 06:29:00;;;;;;;0.03;0.03;;;19.20;70.70;;;;;;6213302;23;20485;-74
2021/05/11 06:31:26;;;;;;;0.00;0.00;;;19.30;69.60;;;;;;6213324;23;20000;-74
2021/05/11 06:33:52;;;;;;;0.10;0.10;;;19.40;70.80;;;;;;6210989;23;20016;-74
2021/05/11 06:36:17;;;;;;;0.00;0.00;;;19.50;69.10;;;;;;6213621;23;20043;-80
2021/05/11 06:38:43;;;;;;;0.08;0.08;;;19.70;66.40;;;;;;6213558;23;20027;-74
2021/05/11 06:41:10;;;;;;;0.10;0.10;;;19.80;64.60;;;;;;6212284;23;20004;-75
2021/05/11 06:43:36;;;;;;;0.10;0.10;;;19.80;68.70;;;;;;6213473;23;20488;-74
2021/05/11 06:48:33;;;;;;;0.10;0.10;;;20.10;67.20;;;;;;6214784;23;20016;-74
2021/05/11 06:53:38;;;;;;;0.10;0.10;;;20.20;69.30;;;;;;6216166;23;20015;-74
2021/05/11 06:56:06;;;;;;;0.00;0.00;;;20.30;66.30;;;;;;6209942;23;20000;-75
2021/05/11 06:58:32;;;;;;;0.10;0.10;;;20.70;69.20;;;;;;6182984;23;20012;-75
2021/05/11 07:00:58;;;;;;;0.00;0.00;;;21.00;63.50;;;;;;6209686;23;20009;-75
2021/05/11 07:03:23;;;;;;;0.10;0.10;;;21.10;65.50;;;;;;6209236;23;20328;-75
2021/05/11 07:05:51;;;;;;;0.10;0.10;;;21.00;65.20;;;;;;6209675;23;20436;-75
2021/05/11 07:10:58;;;;;;;0.00;0.00;;;20.70;63.00;;;;;;6212748;23;20047;-75
2021/05/11 07:13:23;;;;;;;0.10;0.10;;;20.60;62.10;;;;;;6209541;23;20084;-75
2021/05/11 07:15:52;;;;;;;0.10;0.10;;;20.50;67.30;;;;;;6207806;23;20027;-76
2021/05/11 07:18:19;;;;;;;0.10;0.10;;;20.50;66.00;;;;;;6209764;23;20079;-76
2021/05/11 07:20:48;;;;;;;0.10;0.10;;;20.40;68.70;;;;;;6209149;23;20005;-76
2021/05/11 07:23:20;;;;;;;0.10;0.10;;;20.30;69.00;;;;;;6209232;23;20011;-75
2021/05/11 07:31:27;;;;;;;0.10;0.10;;;20.40;70.50;;;;;;6209589;23;20039;-75
2021/05/11 07:33:54;;;;;;;0.10;0.10;;;20.50;67.30;;;;;;6208948;23;20031;-76
2021/05/11 07:36:20;;;;;;;;;;;20.60;69.40;;;;;;6208309;23;20521;-77
2021/05/11 07:38:46;;;;;;;0.10;0.10;;;20.70;68.20;;;;;;6209481;23;19908;-76
2021/05/11 07:41:14;;;;;;;0.10;0.10;;;20.80;69.60;;;;;;6207979;23;20032;-76
2021/05/11 07:43:41;;;;;;;0.10;0.10;;;21.10;64.70;;;;;;6209382;23;20005;-76
2021/05/11 08:02:20;;;;;;;0.10;0.10;;;21.90;62.40;;;;;;6209416;23;20041;-76
2021/05/11 08:15:34;;;;;;;0.10;0.10;;;22.10;62.10;;;;;;6210541;23;20035;-76
2021/05/11 08:28:15;;;;;;;0.10;0.10;;;22.20;64.40;;;;;;6215149;23;19931;-77
2021/05/11 08:30:41;;;;;;;0.10;0.10;;;21.90;61.90;;;;;;6214057;23;20008;-76
2021/05/11 08:33:07;;;;;;;0.10;0.10;;;21.60;63.90;;;;;;6188332;23;20008;-76
2021/05/11 08:35:32;;;;;;;0.00;0.00;;;21.20;63.00;;;;;;6214160;23;20016;-76
2021/05/11 08:37:58;;;;;;;0.10;0.10;;;21.00;62.00;;;;;;6214887;23;20000;-75
2021/05/11 08:40:25;;;;;;;0.10;0.10;;;20.60;65.00;;;;;;6213666;23;20450;-75
2021/05/11 08:42:51;;;;;;;0.00;0.00;;;20.50;63.70;;;;;;6214322;23;20107;-75
2021/05/11 08:45:17;;;;;;;0.10;0.10;;;20.30;63.80;;;;;;6213159;23;20011;-75
2021/05/11 08:47:50;;;;;;;0.00;0.00;;;20.30;65.60;;;;;;6213120;23;19996;-75
2021/05/11 08:50:24;;;;;;;0.10;0.10;;;20.30;64.30;;;;;;6214637;23;20389;-76
2021/05/11 09:54:47;;;;;;;0.10;0.10;;;21.20;71.90;;;;;;6215840;23;20051;-75
2021/05/11 10:48:28;;;;;;;0.10;0.10;;;26.30;53.10;;;;;;6186528;23;20388;-76
2021/05/11 10:50:55;;;;;;;0.10;0.10;;;26.30;55.10;;;;;;6183509;23;20001;-76
2021/05/11 10:54:09;;;;;;;0.10;0.10;;;26.00;54.10;;;;;;6183251;23;20012;-75
2021/05/11 10:56:41;;;;;;;0.10;0.10;;;25.50;57.50;;;;;;6121240;23;20013;-75
2021/05/11 11:01:52;;;;;;;0.10;0.10;;;24.00;58.60;;;;;;6166246;23;20044;-75
2021/05/11 11:04:22;;;;;;;0.10;0.10;;;23.90;58.80;;;;;;6206752;23;20017;-75
2021/05/11 11:06:57;;;;;;;0.10;0.10;;;24.00;58.80;;;;;;6183439;23;20084;-75
2021/05/11 11:09:27;;;;;;;0.10;0.10;;;23.90;59.50;;;;;;6206493;23;20016;-76
2021/05/11 11:11:53;;;;;;;0.10;0.10;;;23.80;60.10;;;;;;6183291;23;20428;-75
2021/05/11 11:14:19;;;;;;;0.10;0.10;;;23.80;61.20;;;;;;6182983;23;20076;-75
2021/05/11 11:16:45;;;;;;;0.10;0.10;;;23.90;63.40;;;;;;6183185;23;20001;-76
2021/05/11 11:19:13;;;;;;;0.10;0.10;;;23.70;58.60;;;;;;6183033;23;20001;-75
2021/05/11 11:24:32;;;;;;;0.10;0.10;;;23.60;57.70;;;;;;6183283;23;20009;-75
2021/05/11 11:26:59;;;;;;;0.10;0.10;;;23.80;60.30;;;;;;6183549;23;20001;-76
2021/05/11 11:29:26;;;;;;;;;;;23.70;60.60;;;;;;6183372;23;19997;-75
2021/05/11 11:31:53;;;;;;;0.10;0.10;;;23.40;63.60;;;;;;6182925;23;19990;-77
2021/05/11 11:34:21;;;;;;;0.10;0.10;;;23.10;62.00;;;;;;6183053;23;20001;-75
2021/05/11 11:37:07;;;;;;;0.10;0.10;;;23.10;64.50;;;;;;6210372;23;20012;-74
2021/05/11 11:39:34;;;;;;;0.10;0.10;;;23.30;65.90;;;;;;6212703;23;20044;-75
2021/05/11 11:42:00;;;;;;;;;;;23.40;66.20;;;;;;6213482;23;20000;-75
2021/05/11 11:44:32;;;;;;;0.10;0.10;;;23.60;64.40;;;;;;6211004;23;19900;-75
2021/05/11 11:47:10;;;;;;;0.10;0.10;;;23.70;64.20;;;;;;6212977;23;20025;-75
2021/05/11 11:49:41;;;;;;;0.10;0.10;;;24.00;64.30;;;;;;6211050;23;20035;-75
2021/05/11 11:52:14;;;;;;;0.10;0.10;;;24.20;61.60;;;;;;6212979;23;20440;-76
2021/05/11 12:00:14;;;;;;;0.10;0.10;;;23.70;62.40;;;;;;6211475;23;20015;-76
2021/05/11 12:03:01;;;;;;;0.10;0.10;;;24.00;62.10;;;;;;6208806;23;20167;-76
2021/05/11 12:05:31;;;;;;;0.10;0.10;;;24.50;59.50;;;;;;6208239;23;20001;-76
2021/05/11 12:08:27;;;;;;;0.10;0.10;;;24.90;59.00;;;;;;6208723;23;20096;-76
2021/05/11 12:10:56;;;;;;;0.10;0.10;;;25.20;59.80;;;;;;6205696;23;20084;-76
2021/05/11 12:13:33;;;;;;;0.10;0.10;;;26.30;58.20;;;;;;6208082;23;20015;-76
2021/05/11 12:16:15;;;;;;;0.10;0.10;;;26.50;56.80;;;;;;6208679;23;20428;-75
2021/05/11 12:19:09;;;;;;;0.10;0.10;;;27.30;55.90;;;;;;6206394;23;20432;-75
2021/05/11 12:21:48;;;;;;;0.10;0.10;;;26.70;56.20;;;;;;6208100;23;20011;-77
2021/05/11 12:24:14;;;;;;;0.10;0.10;;;25.90;57.00;;;;;;6208332;23;20008;-76
2021/05/11 12:26:42;;;;;;;0.10;0.10;;;24.30;61.70;;;;;;6209383;23;20008;-74
2021/05/11 12:29:15;;;;;;;0.10;0.10;;;24.40;61.60;;;;;;6209264;23;20000;-75
2021/05/11 12:31:41;;;;;;;0.10;0.10;;;25.10;61.40;;;;;;6209193;23;20096;-76
2021/05/11 12:34:10;;;;;;;0.10;0.10;;;26.30;59.90;;;;;;6208904;23;20004;-75
2021/05/11 12:36:56;;;;;;;0.10;0.10;;;28.00;55.00;;;;;;6208706;23;20017;-75
2021/05/11 12:39:37;;;;;;;0.10;0.10;;;28.60;53.10;;;;;;6207515;23;20344;-76
2021/05/11 12:42:42;;;;;;;0.10;0.10;;;28.30;55.10;;;;;;6207711;23;20452;-76
2021/05/11 12:45:15;;;;;;;0.10;0.10;;;29.70;51.40;;;;;;6163191;23;20028;-77
2021/05/11 12:47:52;;;;;;;0.10;0.10;;;30.40;48.10;;;;;;6209025;23;20032;-78
2021/05/11 12:50:22;;;;;;;0.10;0.10;;;29.80;49.20;;;;;;6209295;23;20007;-76
2021/05/11 12:52:50;;;;;;;0.10;0.10;;;29.40;48.80;;;;;;6210800;23;20020;-78
2021/05/11 12:55:42;;;;;;;0.10;0.10;;;29.10;50.40;;;;;;6210498;23;20600;-74
2021/05/11 12:58:26;;;;;;;0.10;0.10;;;29.20;51.40;;;;;;6182578;23;20444;-78
2021/05/11 13:01:01;;;;;;;0.10;0.10;;;29.60;50.90;;;;;;6213289;23;20005;-75
2021/05/11 13:04:09;;;;;;;0.10;0.10;;;28.90;52.60;;;;;;6211074;23;20008;-80
2021/05/11 13:27:42;;;;;;;0.00;0.00;;;31.40;48.90;;;;;;6210289;23;20494;-77
2021/05/11 13:35:00;;;;;;;0.00;0.00;;;31.40;47.20;;;;;;6210813;23;20012;-74
2021/05/11 13:37:28;;;;;;;0.08;0.08;;;31.50;46.40;;;;;;6210806;23;20359;-75
2021/05/11 13:39:55;;;;;;;0.10;0.10;;;31.60;46.50;;;;;;6209898;23;20001;-76
2021/05/11 13:42:22;;;;;;;0.03;0.03;;;31.20;46.10;;;;;;6210487;23;20008;-74
2021/05/11 13:44:53;;;;;;;0.10;0.10;;;32.50;45.80;;;;;;6210357;23;20008;-75
2021/05/11 13:47:18;;;;;;;0.05;0.05;;;33.40;44.60;;;;;;6210493;23;20059;-74
2021/05/11 13:49:44;;;;;;;0.10;0.10;;;35.00;41.10;;;;;;6209644;23;20403;-74
2021/05/11 13:52:10;;;;;;;0.00;0.00;;;35.50;41.30;;;;;;6207000;23;20366;-74
2021/05/11 13:54:36;;;;;;;0.03;0.03;;;34.50;40.60;;;;;;6206509;23;20717;-74
2021/05/11 13:57:17;;;;;;;0.00;0.00;;;33.20;44.20;;;;;;6208623;23;20116;-74
2021/05/11 14:04:55;;;;;;;0.10;0.10;;;32.70;44.60;;;;;;6211292;23;20036;-75
2021/05/11 14:07:21;;;;;;;0.10;0.10;;;33.90;43.80;;;;;;6209194;23;20030;-75
2021/05/11 14:09:46;;;;;;;0.00;0.00;;;33.80;42.60;;;;;;6182793;23;20431;-76
2021/05/11 14:12:12;;;;;;;0.00;0.00;;;34.00;43.30;;;;;;6207587;23;20021;-74
2021/05/11 14:14:38;;;;;;;0.00;0.00;;;33.70;42.00;;;;;;6209471;23;20317;-75
2021/05/11 14:17:04;;;;;;;0.10;0.10;;;33.30;43.30;;;;;;6209457;23;20001;-75
2021/05/11 14:19:30;;;;;;;0.10;0.10;;;32.90;43.00;;;;;;6208776;23;20027;-75
2021/05/11 14:21:57;;;;;;;0.10;0.10;;;33.10;42.70;;;;;;6209455;23;20096;-75
2021/05/11 14:24:23;;;;;;;0.10;0.10;;;34.50;41.80;;;;;;6209201;23;20012;-74
2021/05/11 14:26:49;;;;;;;;;;;34.60;40.70;;;;;;6209378;23;20024;-74
2021/05/11 14:29:15;;;;;;;0.00;0.00;;;32.60;42.40;;;;;;6207290;23;19911;-75
2021/05/11 14:31:41;;;;;;;0.10;0.10;;;32.10;44.60;;;;;;6207071;23;20012;-73
2021/05/11 14:34:08;;;;;;;0.00;0.00;;;32.00;44.30;;;;;;6206540;23;20047;-74
2021/05/11 14:36:35;;;;;;;0.00;0.00;;;32.20;43.80;;;;;;6208593;23;20260;-74
2021/05/11 14:39:00;;;;;;;0.00;0.00;;;31.50;45.10;;;;;;6208614;23;20000;-74
2021/05/11 14:41:27;;;;;;;0.10;0.10;;;31.30;45.80;;;;;;6208940;23;20425;-74
2021/05/11 14:43:53;;;;;;;0.00;0.00;;;31.20;46.10;;;;;;6208670;23;20047;-74
2021/05/11 14:46:19;;;;;;;0.00;0.00;;;30.90;45.80;;;;;;6182724;23;20454;-75
2021/05/11 14:48:45;;;;;;;0.10;0.10;;;30.40;45.90;;;;;;6211554;23;20001;-75
2021/05/11 14:51:11;;;;;;;0.10;0.10;;;31.10;45.90;;;;;;6209350;23;20413;-75
2021/05/11 14:53:37;;;;;;;0.00;0.00;;;31.10;44.40;;;;;;6208780;23;20392;-86
2021/05/11 14:56:04;;;;;;;0.00;0.00;;;30.40;46.70;;;;;;6209320;23;20000;-74
2021/05/11 14:58:30;;;;;;;0.10;0.10;;;29.90;46.70;;;;;;6208530;23;20055;-73
2021/05/11 15:00:56;;;;;;;0.00;0.00;;;30.00;46.50;;;;;;6209421;23;20004;-73
2021/05/11 15:03:22;;;;;;;0.00;0.00;;;29.00;48.50;;;;;;6208027;23;20015;-73
2021/05/11 15:05:48;;;;;;;0.00;0.00;;;28.30;49.30;;;;;;6209670;23;20019;-74
2021/05/11 15:08:14;;;;;;;0.10;0.10;;;27.20;52.60;;;;;;6209488;23;20061;-74
2021/05/11 15:10:40;;;;;;;0.10;0.10;;;26.40;53.40;;;;;;6209453;23;20000;-74
2021/05/11 15:13:06;;;;;;;0.10;0.10;;;25.60;55.40;;;;;;6209690;23;20023;-77
2021/05/11 15:15:34;;;;;;;0.10;0.10;;;25.00;55.20;;;;;;6209456;23;20000;-77
2021/05/11 15:18:03;;;;;;;0.10;0.10;;;24.70;55.90;;;;;;6207977;23;20009;-73
2021/05/11 15:20:29;;;;;;;0.10;0.10;;;24.60;56.60;;;;;;6209451;23;20007;-74
2021/05/11 15:22:55;;;;;;;0.10;0.10;;;24.40;55.50;;;;;;6209499;23;20032;-75
2021/05/11 15:25:22;;;;;;;0.10;0.10;;;24.10;60.70;;;;;;6208620;23;20443;-75
2021/05/11 15:27:48;;;;;;;0.10;0.10;;;23.70;63.20;;;;;;6206949;23;20008;-80
2021/05/11 15:30:15;;;;;;;0.10;0.10;;;23.40;64.80;;;;;;6209539;23;20088;-76
2021/05/11 15:32:56;;;;;;;0.10;0.10;;;23.70;63.00;;;;;;6207715;23;20027;-76
2021/05/11 15:35:30;;;;;;;0.10;0.10;;;23.70;62.80;;;;;;6206775;23;20021;-75
2021/05/11 15:38:01;;;;;;;0.10;0.10;;;23.50;64.00;;;;;;6182708;23;20047;-77
2021/05/11 15:40:36;;;;;;;0.10;0.10;;;23.40;66.90;;;;;;6209512;23;19997;-75
2021/05/11 15:43:04;;;;;;;0.10;0.10;;;23.10;68.90;;;;;;6209352;23;20074;-75
2021/05/11 15:45:30;;;;;;;0.10;0.10;;;22.70;70.00;;;;;;6209513;23;20000;-78
2021/05/11 15:47:56;;;;;;;0.10;0.10;;;22.10;69.70;;;;;;6209572;23;20339;-74
2021/05/11 15:50:23;;;;;;;0.10;0.10;;;21.90;70.60;;;;;;6208105;23;20252;-75
2021/05/11 15:52:49;;;;;;;0.10;0.10;;;21.80;70.20;;;;;;6207915;23;20044;-75
2021/05/11 15:55:15;;;;;;;0.10;0.10;;;21.80;70.50;;;;;;6207347;23;20456;-75
2021/05/11 15:57:42;;;;;;;0.10;0.10;;;21.70;70.50;;;;;;6184953;23;20253;-76
2021/05/11 16:00:08;;;;;;;0.10;0.10;;;21.40;71.70;;;;;;6211803;23;20108;-75
2021/05/11 16:02:34;;;;;;;0.10;0.10;;;21.20;73.50;;;;;;6213222;23;20001;-76
2021/05/11 16:05:00;;;;;;;0.10;0.10;;;21.10;75.50;;;;;;6211679;23;20009;-75
2021/05/11 16:07:26;;;;;;;0.10;0.10;;;20.90;76.00;;;;;;6213320;23;20001;-77
2021/05/11 16:09:52;;;;;;;0.10;0.10;;;20.80;76.80;;;;;;6213020;23;20008;-76
2021/05/11 16:12:18;;;;;;;0.10;0.10;;;20.70;76.30;;;;;;6213370;23;20070;-75
2021/05/11 16:14:44;;;;;;;0.10;0.10;;;20.60;76.60;;;;;;6213059;23;20432;-78
2021/05/11 16:17:09;;;;;;;0.10;0.10;;;20.40;77.30;;;;;;6213521;23;20005;-78
2021/05/11 16:19:35;;;;;;;0.10;0.10;;;20.30;77.90;;;;;;6212922;23;19996;-77
2021/05/11 16:22:00;;;;;;;0.10;0.10;;;20.10;78.70;;;;;;6186947;23;20388;-76
2021/05/11 16:24:26;;;;;;;0.00;0.00;;;19.80;80.10;;;;;;6213212;23;19992;-75
2021/05/11 16:26:52;;;;;;;0.10;0.10;;;19.60;81.10;;;;;;6213649;23;20031;-76
2021/05/11 16:29:17;;;;;;;0.10;0.10;;;19.50;82.20;;;;;;6213316;23;20004;-76
2021/05/11 16:31:47;;;;;;;0.10;0.10;;;19.50;82.70;;;;;;6208873;23;20063;-76
2021/05/11 16:34:13;;;;;;;0.10;0.10;;;19.60;83.50;;;;;;6212530;23;19997;-74
2021/05/11 16:36:39;;;;;;;0.10;0.10;;;19.60;84.00;;;;;;6213525;23;20087;-77
2021/05/11 16:39:04;;;;;;;0.00;0.00;;;19.70;85.20;;;;;;6214411;23;20004;-76
2021/05/11 16:41:30;;;;;;;0.00;0.00;;;19.60;85.60;;;;;;6214508;23;20004;-75
2021/05/11 16:43:57;;;;;;;0.00;0.00;;;19.60;86.40;;;;;;6214227;23;20000;-76
2021/05/11 16:46:23;;;;;;;;;;;19.70;84.60;;;;;;6210546;23;20011;-76
2021/05/11 16:48:48;;;;;;;0.10;0.10;;;19.70;86.30;;;;;;6207214;23;19904;-77
2021/05/11 16:51:14;;;;;;;0.10;0.10;;;19.90;86.10;;;;;;6213877;23;20153;-75
2021/05/11 16:53:40;;;;;;;0.08;0.08;;;19.80;85.80;;;;;;6212015;23;20058;-78
2021/05/11 16:56:06;;;;;;;0.00;0.00;;;19.70;87.00;;;;;;6210095;23;20013;-77
2021/05/11 16:58:32;;;;;;;0.00;0.00;;;19.70;88.10;;;;;;6211983;23;20009;-78
2021/05/11 17:00:57;;;;;;;0.00;0.00;;;19.50;89.00;;;;;;6203087;23;20055;-73
2021/05/11 17:03:23;;;;;;;0.10;0.10;;;18.90;90.40;;;;;;6210753;23;20016;-77
2021/05/11 17:05:49;;;;;;;0.10;0.10;;;18.60;94.40;;;;;;6211422;23;20000;-76
2021/05/11 17:08:15;;;;;;;0.10;0.10;;;18.50;93.70;;;;;;6212082;23;20352;-74
2021/05/11 17:10:42;;;;;;;0.10;0.10;;;18.70;93.10;;;;;;6213924;23;20331;-78
2021/05/11 17:13:08;;;;;;;0.00;0.00;;;18.70;94.10;;;;;;6214327;23;20012;-75
2021/05/11 17:15:35;;;;;;;0.10;0.10;;;18.80;92.90;;;;;;6214014;23;20004;-78
2021/05/11 17:18:01;;;;;;;0.10;0.10;;;18.80;93.40;;;;;;6213699;23;20032;-77
2021/05/11 17:20:29;;;;;;;0.10;0.10;;;18.80;93.30;;;;;;6213978;23;20102;-75
2021/05/11 17:22:55;;;;;;;;;;;18.80;91.80;;;;;;6214338;23;20263;-76
2021/05/11 17:25:22;;;;;;;0.00;0.00;;;18.90;92.60;;;;;;6212180;23;19900;-76
2021/05/11 17:27:50;;;;;;;0.08;0.08;;;18.70;92.90;;;;;;6214319;23;19997;-75